Weather at Wick Airport

Public forecast

Using degrees Celsius for public forecast. Weather courtesy of forecast.io.

Current aviation weather report (METAR) for Wick Airport

2024/05/29 22:50 (retrieved 35 minutes ago)

EGPC 292250Z AUTO 32003KT 9999 NCD 11/10 Q1008

Closest aviation forecast (TAF) to Wick Airport

Closest forecast is RAF Lossiemouth, 45.9 nm (85.0 km) S.

2024/05/29 21:46 (retrieved 2 hours ago)

TAF EGQS 291939Z 2921/3015 01008KT 9999 FEW007 SCT045 TEMPO 2921/3001 7000 SHRA SCT007 PROB40 TEMPO 2921/3001 3000 RADZ SHRA SCT004 BKN008 PROB40 TEMPO 3001/3008 SCT010 PROB30 TEMPO 3008/3015 6000 -SHRA SCT016